sensor_id;sensor_type;location;lat;lon;timestamp;temperature;humidity
20057;DHT22;10189;49.546;7.906;2023-03-03T00:01:13;0.00;62.40
20057;DHT22;10189;49.546;7.906;2023-03-03T00:03:40;0.20;62.00
20057;DHT22;10189;49.546;7.906;2023-03-03T00:06:09;0.30;61.70
20057;DHT22;10189;49.546;7.906;2023-03-03T00:08:37;0.40;62.90
20057;DHT22;10189;49.546;7.906;2023-03-03T00:11:04;0.30;63.00
20057;DHT22;10189;49.546;7.906;2023-03-03T00:13:53;0.40;62.20
20057;DHT22;10189;49.546;7.906;2023-03-03T00:16:25;0.30;62.30
20057;DHT22;10189;49.546;7.906;2023-03-03T00:18:54;0.40;62.60
20057;DHT22;10189;49.546;7.906;2023-03-03T00:21:30;0.50;62.50
20057;DHT22;10189;49.546;7.906;2023-03-03T00:24:37;0.50;62.60
20057;DHT22;10189;49.546;7.906;2023-03-03T00:27:34;0.50;62.80
20057;DHT22;10189;49.546;7.906;2023-03-03T00:30:17;0.30;63.70
20057;DHT22;10189;49.546;7.906;2023-03-03T00:32:47;0.00;65.00
20057;DHT22;10189;49.546;7.906;2023-03-03T00:35:27;-0.10;65.60
20057;DHT22;10189;49.546;7.906;2023-03-03T00:38:09;-0.20;66.20
20057;DHT22;10189;49.546;7.906;2023-03-03T00:40:42;-0.40;67.10
20057;DHT22;10189;49.546;7.906;2023-03-03T00:43:22;-0.50;67.70
20057;DHT22;10189;49.546;7.906;2023-03-03T00:45:51;-0.60;68.20
20057;DHT22;10189;49.546;7.906;2023-03-03T00:53:49;-1.00;70.20
20057;DHT22;10189;49.546;7.906;2023-03-03T00:56:15;-0.80;70.60
20057;DHT22;10189;49.546;7.906;2023-03-03T00:58:41;-0.80;70.60
20057;DHT22;10189;49.546;7.906;2023-03-03T01:01:08;-0.90;71.00
20057;DHT22;10189;49.546;7.906;2023-03-03T01:03:44;-0.70;70.50
20057;DHT22;10189;49.546;7.906;2023-03-03T01:06:11;-0.70;70.40
20057;DHT22;10189;49.546;7.906;2023-03-03T01:08:39;-0.60;70.30
20057;DHT22;10189;49.546;7.906;2023-03-03T01:11:10;-0.50;70.00
20057;DHT22;10189;49.546;7.906;2023-03-03T01:13:42;-0.30;69.40
20057;DHT22;10189;49.546;7.906;2023-03-03T01:16:10;-0.20;68.90
20057;DHT22;10189;49.546;7.906;2023-03-03T01:18:36;-0.30;69.00
20057;DHT22;10189;49.546;7.906;2023-03-03T01:21:03;-0.30;69.00
20057;DHT22;10189;49.546;7.906;2023-03-03T01:23:31;-0.20;69.30
20057;DHT22;10189;49.546;7.906;2023-03-03T01:25:57;-0.10;68.90
20057;DHT22;10189;49.546;7.906;2023-03-03T01:28:23;-0.10;68.80
20057;DHT22;10189;49.546;7.906;2023-03-03T01:30:50;0.00;68.50
20057;DHT22;10189;49.546;7.906;2023-03-03T01:33:17;0.00;68.20
20057;DHT22;10189;49.546;7.906;2023-03-03T01:35:47;-0.10;68.50
20057;DHT22;10189;49.546;7.906;2023-03-03T01:38:14;0.00;69.00
20057;DHT22;10189;49.546;7.906;2023-03-03T01:40:40;-0.10;69.10
20057;DHT22;10189;49.546;7.906;2023-03-03T01:43:06;0.00;68.80
20057;DHT22;10189;49.546;7.906;2023-03-03T01:48:19;0.20;68.60
20057;DHT22;10189;49.546;7.906;2023-03-03T01:51:21;0.20;68.60
20057;DHT22;10189;49.546;7.906;2023-03-03T01:53:53;0.30;68.70
20057;DHT22;10189;49.546;7.906;2023-03-03T01:56:24;0.30;68.50
20057;DHT22;10189;49.546;7.906;2023-03-03T01:59:10;0.30;68.60
20057;DHT22;10189;49.546;7.906;2023-03-03T02:01:41;0.40;68.70
20057;DHT22;10189;49.546;7.906;2023-03-03T02:04:11;0.50;68.50
20057;DHT22;10189;49.546;7.906;2023-03-03T02:06:40;0.40;68.50
20057;DHT22;10189;49.546;7.906;2023-03-03T02:09:36;0.30;68.70
20057;DHT22;10189;49.546;7.906;2023-03-03T02:12:07;0.20;69.50
20057;DHT22;10189;49.546;7.906;2023-03-03T02:14:36;0.00;70.10
20057;DHT22;10189;49.546;7.906;2023-03-03T02:17:02;-0.10;70.80
20057;DHT22;10189;49.546;7.906;2023-03-03T02:22:57;-0.30;71.30
20057;DHT22;10189;49.546;7.906;2023-03-03T02:25:50;-0.30;71.60
20057;DHT22;10189;49.546;7.906;2023-03-03T02:28:27;-0.60;72.50
20057;DHT22;10189;49.546;7.906;2023-03-03T02:30:58;-0.80;73.00
20057;DHT22;10189;49.546;7.906;2023-03-03T02:33:25;-1.00;73.70
20057;DHT22;10189;49.546;7.906;2023-03-03T02:35:52;-1.20;74.30
20057;DHT22;10189;49.546;7.906;2023-03-03T02:38:42;-1.50;75.50
20057;DHT22;10189;49.546;7.906;2023-03-03T02:41:59;-1.70;77.10
20057;DHT22;10189;49.546;7.906;2023-03-03T02:44:37;-1.80;77.60
20057;DHT22;10189;49.546;7.906;2023-03-03T02:47:04;-1.70;79.20
20057;DHT22;10189;49.546;7.906;2023-03-03T02:49:33;-1.60;78.30
20057;DHT22;10189;49.546;7.906;2023-03-03T02:52:01;-1.60;78.70
20057;DHT22;10189;49.546;7.906;2023-03-03T02:54:31;-1.40;79.60
20057;DHT22;10189;49.546;7.906;2023-03-03T02:56:58;-1.30;79.40
20057;DHT22;10189;49.546;7.906;2023-03-03T02:59:26;-1.10;78.50
20057;DHT22;10189;49.546;7.906;2023-03-03T03:01:54;-1.10;78.40
20057;DHT22;10189;49.546;7.906;2023-03-03T03:04:25;-1.10;78.40
20057;DHT22;10189;49.546;7.906;2023-03-03T03:06:53;-1.10;78.50
20057;DHT22;10189;49.546;7.906;2023-03-03T03:09:22;-1.10;78.90
20057;DHT22;10189;49.546;7.906;2023-03-03T03:11:51;-1.10;79.00
20057;DHT22;10189;49.546;7.906;2023-03-03T03:14:20;-1.00;79.50
20057;DHT22;10189;49.546;7.906;2023-03-03T03:16:48;-0.90;79.20
20057;DHT22;10189;49.546;7.906;2023-03-03T03:19:14;-0.80;78.90
20057;DHT22;10189;49.546;7.906;2023-03-03T03:21:41;-0.80;79.10
20057;DHT22;10189;49.546;7.906;2023-03-03T03:24:08;-0.80;79.30
20057;DHT22;10189;49.546;7.906;2023-03-03T03:26:37;-0.80;79.20
20057;DHT22;10189;49.546;7.906;2023-03-03T03:29:03;-0.80;79.60
20057;DHT22;10189;49.546;7.906;2023-03-03T03:31:30;-0.90;80.10
20057;DHT22;10189;49.546;7.906;2023-03-03T03:33:56;-1.00;80.20
20057;DHT22;10189;49.546;7.906;2023-03-03T03:36:23;-1.10;80.40
20057;DHT22;10189;49.546;7.906;2023-03-03T03:38:50;-1.10;81.10
20057;DHT22;10189;49.546;7.906;2023-03-03T03:41:16;-1.30;80.50
20057;DHT22;10189;49.546;7.906;2023-03-03T03:43:42;-1.40;81.60
20057;DHT22;10189;49.546;7.906;2023-03-03T03:46:08;-1.50;82.20
20057;DHT22;10189;49.546;7.906;2023-03-03T03:48:34;-1.50;82.20
20057;DHT22;10189;49.546;7.906;2023-03-03T03:51:02;-1.50;81.90
20057;DHT22;10189;49.546;7.906;2023-03-03T03:53:30;-1.60;82.50
20057;DHT22;10189;49.546;7.906;2023-03-03T03:55:56;-1.70;84.20
20057;DHT22;10189;49.546;7.906;2023-03-03T03:58:22;-1.60;83.90
20057;DHT22;10189;49.546;7.906;2023-03-03T04:01:02;-1.70;84.10
20057;DHT22;10189;49.546;7.906;2023-03-03T04:03:30;-1.90;85.20
20057;DHT22;10189;49.546;7.906;2023-03-03T04:05:56;-2.00;84.20
20057;DHT22;10189;49.546;7.906;2023-03-03T04:08:22;-2.10;84.00
20057;DHT22;10189;49.546;7.906;2023-03-03T04:10:48;-2.20;84.40
20057;DHT22;10189;49.546;7.906;2023-03-03T04:13:15;-2.30;84.90
20057;DHT22;10189;49.546;7.906;2023-03-03T04:15:41;-2.30;87.50
20057;DHT22;10189;49.546;7.906;2023-03-03T04:18:07;-2.30;88.40
20057;DHT22;10189;49.546;7.906;2023-03-03T04:20:33;-2.20;88.90
20057;DHT22;10189;49.546;7.906;2023-03-03T04:23:00;-2.20;87.80
20057;DHT22;10189;49.546;7.906;2023-03-03T04:25:28;-2.10;88.40
20057;DHT22;10189;49.546;7.906;2023-03-03T04:27:54;-2.10;88.90
20057;DHT22;10189;49.546;7.906;2023-03-03T04:30:21;-2.00;89.20
20057;DHT22;10189;49.546;7.906;2023-03-03T04:32:50;-2.10;88.70
20057;DHT22;10189;49.546;7.906;2023-03-03T04:35:20;-2.10;87.50
20057;DHT22;10189;49.546;7.906;2023-03-03T04:37:46;-2.30;87.20
20057;DHT22;10189;49.546;7.906;2023-03-03T04:40:12;-2.30;88.30
20057;DHT22;10189;49.546;7.906;2023-03-03T04:42:40;-2.20;90.10
20057;DHT22;10189;49.546;7.906;2023-03-03T04:45:08;-1.90;91.50
20057;DHT22;10189;49.546;7.906;2023-03-03T04:47:35;-1.60;90.80
20057;DHT22;10189;49.546;7.906;2023-03-03T04:50:01;-1.80;87.10
20057;DHT22;10189;49.546;7.906;2023-03-03T04:52:29;-1.90;87.40
20057;DHT22;10189;49.546;7.906;2023-03-03T04:54:55;-2.00;87.90
20057;DHT22;10189;49.546;7.906;2023-03-03T04:57:22;-2.20;87.70
20057;DHT22;10189;49.546;7.906;2023-03-03T04:59:48;-2.40;86.80
20057;DHT22;10189;49.546;7.906;2023-03-03T05:02:14;-2.60;87.10
20057;DHT22;10189;49.546;7.906;2023-03-03T05:04:40;-2.70;87.70
20057;DHT22;10189;49.546;7.906;2023-03-03T05:07:06;-2.90;88.50
20057;DHT22;10189;49.546;7.906;2023-03-03T05:09:32;-3.00;90.10
20057;DHT22;10189;49.546;7.906;2023-03-03T05:11:58;-3.00;91.30
20057;DHT22;10189;49.546;7.906;2023-03-03T05:14:25;-3.00;93.80
20057;DHT22;10189;49.546;7.906;2023-03-03T05:16:51;-2.80;93.90
20057;DHT22;10189;49.546;7.906;2023-03-03T05:19:17;-2.80;93.40
20057;DHT22;10189;49.546;7.906;2023-03-03T05:21:43;-2.90;93.20
20057;DHT22;10189;49.546;7.906;2023-03-03T05:24:10;-2.80;93.80
20057;DHT22;10189;49.546;7.906;2023-03-03T05:26:38;-2.70;92.90
20057;DHT22;10189;49.546;7.906;2023-03-03T05:29:05;-2.80;93.30
20057;DHT22;10189;49.546;7.906;2023-03-03T05:31:32;-2.70;95.70
20057;DHT22;10189;49.546;7.906;2023-03-03T05:33:57;-2.60;95.10
20057;DHT22;10189;49.546;7.906;2023-03-03T05:36:24;-2.50;95.00
20057;DHT22;10189;49.546;7.906;2023-03-03T05:38:50;-2.60;95.20
20057;DHT22;10189;49.546;7.906;2023-03-03T05:41:16;-2.50;95.30
20057;DHT22;10189;49.546;7.906;2023-03-03T05:43:42;-2.60;94.70
20057;DHT22;10189;49.546;7.906;2023-03-03T05:46:09;-2.70;93.20
20057;DHT22;10189;49.546;7.906;2023-03-03T05:48:36;-2.90;92.40
20057;DHT22;10189;49.546;7.906;2023-03-03T05:51:02;-3.00;91.50
20057;DHT22;10189;49.546;7.906;2023-03-03T05:53:28;-3.10;92.70
20057;DHT22;10189;49.546;7.906;2023-03-03T05:55:54;-3.20;92.80
20057;DHT22;10189;49.546;7.906;2023-03-03T05:58:21;-3.20;93.60
20057;DHT22;10189;49.546;7.906;2023-03-03T06:00:47;-3.30;94.70
20057;DHT22;10189;49.546;7.906;2023-03-03T06:03:12;-3.30;95.70
20057;DHT22;10189;49.546;7.906;2023-03-03T06:05:39;-3.30;96.20
20057;DHT22;10189;49.546;7.906;2023-03-03T06:08:05;-3.40;97.10
20057;DHT22;10189;49.546;7.906;2023-03-03T06:10:31;-3.30;97.70
20057;DHT22;10189;49.546;7.906;2023-03-03T06:13:00;-3.30;97.70
20057;DHT22;10189;49.546;7.906;2023-03-03T06:15:26;-3.30;98.10
20057;DHT22;10189;49.546;7.906;2023-03-03T06:17:52;-3.20;98.70
20057;DHT22;10189;49.546;7.906;2023-03-03T06:20:18;-3.20;98.80
20057;DHT22;10189;49.546;7.906;2023-03-03T06:22:44;-3.20;98.10
20057;DHT22;10189;49.546;7.906;2023-03-03T06:25:10;-3.30;96.80
20057;DHT22;10189;49.546;7.906;2023-03-03T06:27:36;-3.40;96.30
20057;DHT22;10189;49.546;7.906;2023-03-03T06:30:02;-3.40;95.90
20057;DHT22;10189;49.546;7.906;2023-03-03T06:32:29;-3.50;95.60
20057;DHT22;10189;49.546;7.906;2023-03-03T06:34:54;-3.50;94.30
20057;DHT22;10189;49.546;7.906;2023-03-03T06:37:20;-3.50;93.30
20057;DHT22;10189;49.546;7.906;2023-03-03T06:39:46;-3.50;92.80
20057;DHT22;10189;49.546;7.906;2023-03-03T06:42:12;-3.60;93.10
20057;DHT22;10189;49.546;7.906;2023-03-03T06:44:38;-3.60;93.70
20057;DHT22;10189;49.546;7.906;2023-03-03T06:47:04;-3.60;94.60
20057;DHT22;10189;49.546;7.906;2023-03-03T06:49:30;-3.60;95.40
20057;DHT22;10189;49.546;7.906;2023-03-03T06:51:58;-3.60;95.80
20057;DHT22;10189;49.546;7.906;2023-03-03T06:54:30;-3.50;96.10
20057;DHT22;10189;49.546;7.906;2023-03-03T06:57:01;-3.50;96.40
20057;DHT22;10189;49.546;7.906;2023-03-03T06:59:40;-3.40;96.10
20057;DHT22;10189;49.546;7.906;2023-03-03T07:02:15;-3.30;94.60
20057;DHT22;10189;49.546;7.906;2023-03-03T07:04:42;-3.20;93.50
20057;DHT22;10189;49.546;7.906;2023-03-03T07:07:20;-3.10;92.70
20057;DHT22;10189;49.546;7.906;2023-03-03T07:09:55;-3.00;92.30
20057;DHT22;10189;49.546;7.906;2023-03-03T07:12:25;-2.80;91.70
20057;DHT22;10189;49.546;7.906;2023-03-03T07:15:14;-2.60;91.00
20057;DHT22;10189;49.546;7.906;2023-03-03T07:17:47;-2.50;90.50
20057;DHT22;10189;49.546;7.906;2023-03-03T07:23:19;-2.10;87.90
20057;DHT22;10189;49.546;7.906;2023-03-03T07:25:49;-2.10;87.20
20057;DHT22;10189;49.546;7.906;2023-03-03T07:28:28;-2.00;86.90
20057;DHT22;10189;49.546;7.906;2023-03-03T07:30:56;-1.90;87.30
20057;DHT22;10189;49.546;7.906;2023-03-03T07:36:01;-1.70;87.80
20057;DHT22;10189;49.546;7.906;2023-03-03T07:38:40;-1.50;87.00
20057;DHT22;10189;49.546;7.906;2023-03-03T07:41:19;-1.30;85.90
20057;DHT22;10189;49.546;7.906;2023-03-03T07:43:53;-1.20;85.30
20057;DHT22;10189;49.546;7.906;2023-03-03T07:46:42;-1.10;84.90
20057;DHT22;10189;49.546;7.906;2023-03-03T07:52:00;-0.70;83.70
20057;DHT22;10189;49.546;7.906;2023-03-03T07:54:35;-0.60;83.20
20057;DHT22;10189;49.546;7.906;2023-03-03T07:57:13;-0.60;82.40
20057;DHT22;10189;49.546;7.906;2023-03-03T08:00:00;-0.50;82.50
20057;DHT22;10189;49.546;7.906;2023-03-03T08:03:11;-0.50;82.50
20057;DHT22;10189;49.546;7.906;2023-03-03T08:05:43;-0.30;82.50
20057;DHT22;10189;49.546;7.906;2023-03-03T08:08:29;-0.30;82.00
20057;DHT22;10189;49.546;7.906;2023-03-03T08:11:02;-0.10;82.30
20057;DHT22;10189;49.546;7.906;2023-03-03T08:13:36;0.00;81.70
20057;DHT22;10189;49.546;7.906;2023-03-03T08:18:50;0.40;81.80
20057;DHT22;10189;49.546;7.906;2023-03-03T08:21:22;0.60;81.40
20057;DHT22;10189;49.546;7.906;2023-03-03T08:23:50;0.80;80.50
20057;DHT22;10189;49.546;7.906;2023-03-03T08:26:22;1.00;79.70
20057;DHT22;10189;49.546;7.906;2023-03-03T08:28:50;1.10;79.80
20057;DHT22;10189;49.546;7.906;2023-03-03T08:31:17;1.10;80.20
20057;DHT22;10189;49.546;7.906;2023-03-03T08:33:44;1.10;80.90
20057;DHT22;10189;49.546;7.906;2023-03-03T08:36:11;1.30;81.30
20057;DHT22;10189;49.546;7.906;2023-03-03T08:38:37;1.40;80.90
20057;DHT22;10189;49.546;7.906;2023-03-03T08:41:04;1.40;81.60
20057;DHT22;10189;49.546;7.906;2023-03-03T08:43:30;1.40;82.40
20057;DHT22;10189;49.546;7.906;2023-03-03T08:45:58;1.50;82.40
20057;DHT22;10189;49.546;7.906;2023-03-03T08:48:27;1.50;82.10
20057;DHT22;10189;49.546;7.906;2023-03-03T08:50:53;1.60;82.60
20057;DHT22;10189;49.546;7.906;2023-03-03T08:53:20;1.70;81.40
20057;DHT22;10189;49.546;7.906;2023-03-03T08:55:47;1.90;81.20
20057;DHT22;10189;49.546;7.906;2023-03-03T08:58:15;2.00;80.50
20057;DHT22;10189;49.546;7.906;2023-03-03T09:00:42;2.00;80.00
20057;DHT22;10189;49.546;7.906;2023-03-03T09:03:08;2.20;79.30
20057;DHT22;10189;49.546;7.906;2023-03-03T09:05:37;2.30;79.10
20057;DHT22;10189;49.546;7.906;2023-03-03T09:08:05;2.40;79.80
20057;DHT22;10189;49.546;7.906;2023-03-03T09:10:32;2.50;79.50
20057;DHT22;10189;49.546;7.906;2023-03-03T09:13:11;2.50;78.60
20057;DHT22;10189;49.546;7.906;2023-03-03T09:15:41;2.50;79.40
20057;DHT22;10189;49.546;7.906;2023-03-03T09:21:25;2.60;78.50
20057;DHT22;10189;49.546;7.906;2023-03-03T09:23:59;2.60;78.60
20057;DHT22;10189;49.546;7.906;2023-03-03T09:26:46;2.50;79.60
20057;DHT22;10189;49.546;7.906;2023-03-03T09:31:42;2.60;79.50
20057;DHT22;10189;49.546;7.906;2023-03-03T09:34:41;2.40;79.20
20057;DHT22;10189;49.546;7.906;2023-03-03T09:37:22;2.40;79.00
20057;DHT22;10189;49.546;7.906;2023-03-03T09:39:53;2.30;79.50
20057;DHT22;10189;49.546;7.906;2023-03-03T09:48:17;2.20;79.80
20057;DHT22;10189;49.546;7.906;2023-03-03T09:54:40;2.50;78.00
20057;DHT22;10189;49.546;7.906;2023-03-03T09:57:21;2.60;78.20
20057;DHT22;10189;49.546;7.906;2023-03-03T10:00:45;2.50;78.30
20057;DHT22;10189;49.546;7.906;2023-03-03T10:03:20;2.50;79.40
20057;DHT22;10189;49.546;7.906;2023-03-03T10:18:44;2.90;78.20
20057;DHT22;10189;49.546;7.906;2023-03-03T10:21:50;3.10;77.90
20057;DHT22;10189;49.546;7.906;2023-03-03T10:24:29;3.10;77.40
20057;DHT22;10189;49.546;7.906;2023-03-03T10:33:04;3.40;76.00
20057;DHT22;10189;49.546;7.906;2023-03-03T10:41:39;3.80;73.70
20057;DHT22;10189;49.546;7.906;2023-03-03T10:44:19;3.90;74.60
20057;DHT22;10189;49.546;7.906;2023-03-03T10:56:21;4.10;71.50
20057;DHT22;10189;49.546;7.906;2023-03-03T10:59:41;4.00;72.60
20057;DHT22;10189;49.546;7.906;2023-03-03T11:02:24;4.10;72.50
20057;DHT22;10189;49.546;7.906;2023-03-03T11:05:31;4.10;72.70
20057;DHT22;10189;49.546;7.906;2023-03-03T11:14:30;4.30;70.40
20057;DHT22;10189;49.546;7.906;2023-03-03T11:17:14;4.40;71.30
20057;DHT22;10189;49.546;7.906;2023-03-03T11:34:36;4.60;70.50
20057;DHT22;10189;49.546;7.906;2023-03-03T11:37:22;4.80;71.10
20057;DHT22;10189;49.546;7.906;2023-03-03T11:39:54;4.90;69.50
20057;DHT22;10189;49.546;7.906;2023-03-03T11:45:18;5.00;68.50
20057;DHT22;10189;49.546;7.906;2023-03-03T11:50:50;4.90;66.80
20057;DHT22;10189;49.546;7.906;2023-03-03T11:53:42;4.90;68.50
20057;DHT22;10189;49.546;7.906;2023-03-03T11:58:57;5.10;68.20
20057;DHT22;10189;49.546;7.906;2023-03-03T12:04:46;5.10;67.80
20057;DHT22;10189;49.546;7.906;2023-03-03T12:07:43;5.10;67.80
20057;DHT22;10189;49.546;7.906;2023-03-03T12:30:25;5.50;65.30
20057;DHT22;10189;49.546;7.906;2023-03-03T12:39:14;5.70;66.10
20057;DHT22;10189;49.546;7.906;2023-03-03T12:45:45;5.70;65.60
20057;DHT22;10189;49.546;7.906;2023-03-03T12:48:35;5.80;65.90
20057;DHT22;10189;49.546;7.906;2023-03-03T12:51:12;5.90;64.20
20057;DHT22;10189;49.546;7.906;2023-03-03T12:59:23;5.80;64.60
20057;DHT22;10189;49.546;7.906;2023-03-03T13:04:59;6.00;64.40
20057;DHT22;10189;49.546;7.906;2023-03-03T13:08:14;6.10;64.80
20057;DHT22;10189;49.546;7.906;2023-03-03T13:14:01;6.30;62.60
20057;DHT22;10189;49.546;7.906;2023-03-03T13:34:01;6.30;63.30
20057;DHT22;10189;49.546;7.906;2023-03-03T13:36:51;6.20;63.40
20057;DHT22;10189;49.546;7.906;2023-03-03T13:39:22;6.00;64.00
20057;DHT22;10189;49.546;7.906;2023-03-03T13:42:00;5.90;64.50
20057;DHT22;10189;49.546;7.906;2023-03-03T13:44:30;5.90;64.40
20057;DHT22;10189;49.546;7.906;2023-03-03T13:50:19;6.00;64.10
20057;DHT22;10189;49.546;7.906;2023-03-03T13:53:00;6.20;64.10
20057;DHT22;10189;49.546;7.906;2023-03-03T13:58:30;6.20;64.20
20057;DHT22;10189;49.546;7.906;2023-03-03T14:01:22;6.30;63.70
20057;DHT22;10189;49.546;7.906;2023-03-03T14:06:53;6.40;62.80
20057;DHT22;10189;49.546;7.906;2023-03-03T14:15:29;6.60;62.70
20057;DHT22;10189;49.546;7.906;2023-03-03T14:18:16;6.70;62.30
20057;DHT22;10189;49.546;7.906;2023-03-03T14:20:53;6.50;61.60
20057;DHT22;10189;49.546;7.906;2023-03-03T14:23:46;6.50;62.50
20057;DHT22;10189;49.546;7.906;2023-03-03T14:26:20;6.50;62.90
20057;DHT22;10189;49.546;7.906;2023-03-03T14:28:48;6.50;62.40
20057;DHT22;10189;49.546;7.906;2023-03-03T14:31:37;6.60;62.30
20057;DHT22;10189;49.546;7.906;2023-03-03T14:36:41;6.70;62.30
20057;DHT22;10189;49.546;7.906;2023-03-03T14:39:31;6.60;61.60
20057;DHT22;10189;49.546;7.906;2023-03-03T14:42:14;6.60;62.20
20057;DHT22;10189;49.546;7.906;2023-03-03T14:45:00;6.60;62.10
20057;DHT22;10189;49.546;7.906;2023-03-03T14:47:43;6.70;61.60
20057;DHT22;10189;49.546;7.906;2023-03-03T14:50:37;6.60;61.30
20057;DHT22;10189;49.546;7.906;2023-03-03T14:53:21;6.70;61.20
20057;DHT22;10189;49.546;7.906;2023-03-03T14:56:07;6.70;61.20
20057;DHT22;10189;49.546;7.906;2023-03-03T14:59:17;6.70;61.00
20057;DHT22;10189;49.546;7.906;2023-03-03T15:01:46;6.50;61.50
20057;DHT22;10189;49.546;7.906;2023-03-03T15:04:26;6.60;62.00
20057;DHT22;10189;49.546;7.906;2023-03-03T15:06:55;6.60;61.70
20057;DHT22;10189;49.546;7.906;2023-03-03T15:09:39;6.60;62.20
20057;DHT22;10189;49.546;7.906;2023-03-03T15:15:01;6.60;60.40
20057;DHT22;10189;49.546;7.906;2023-03-03T15:17:41;6.50;60.90
20057;DHT22;10189;49.546;7.906;2023-03-03T15:20:36;6.50;61.10
20057;DHT22;10189;49.546;7.906;2023-03-03T15:23:10;6.40;60.90
20057;DHT22;10189;49.546;7.906;2023-03-03T15:26:00;6.50;61.20
20057;DHT22;10189;49.546;7.906;2023-03-03T15:28:56;6.50;61.50
20057;DHT22;10189;49.546;7.906;2023-03-03T15:31:41;6.50;61.60
20057;DHT22;10189;49.546;7.906;2023-03-03T15:34:37;6.50;61.00
20057;DHT22;10189;49.546;7.906;2023-03-03T15:40:15;6.30;61.90
20057;DHT22;10189;49.546;7.906;2023-03-03T15:54:35;6.20;63.10
20057;DHT22;10189;49.546;7.906;2023-03-03T16:03:09;6.00;63.60
20057;DHT22;10189;49.546;7.906;2023-03-03T16:05:55;6.00;64.00
20057;DHT22;10189;49.546;7.906;2023-03-03T16:16:51;5.80;63.70
20057;DHT22;10189;49.546;7.906;2023-03-03T16:23:13;5.70;64.10
20057;DHT22;10189;49.546;7.906;2023-03-03T16:38:01;5.50;63.10
20057;DHT22;10189;49.546;7.906;2023-03-03T16:46:10;5.20;63.80
20057;DHT22;10189;49.546;7.906;2023-03-03T16:49:24;5.10;64.20
20057;DHT22;10189;49.546;7.906;2023-03-03T16:52:06;5.10;64.20
20057;DHT22;10189;49.546;7.906;2023-03-03T17:00:54;4.80;64.90
20057;DHT22;10189;49.546;7.906;2023-03-03T17:04:04;4.70;65.20
20057;DHT22;10189;49.546;7.906;2023-03-03T17:29:19;3.60;69.70
20057;DHT22;10189;49.546;7.906;2023-03-03T17:37:30;2.90;72.00
20057;DHT22;10189;49.546;7.906;2023-03-03T17:43:56;2.60;73.40
20057;DHT22;10189;49.546;7.906;2023-03-03T17:46:38;2.30;74.20
20057;DHT22;10189;49.546;7.906;2023-03-03T17:54:36;2.10;75.50
20057;DHT22;10189;49.546;7.906;2023-03-03T18:00:02;1.90;76.20
20057;DHT22;10189;49.546;7.906;2023-03-03T18:02:59;1.80;76.40
20057;DHT22;10189;49.546;7.906;2023-03-03T18:09:31;1.40;77.90
20057;DHT22;10189;49.546;7.906;2023-03-03T18:17:21;1.00;79.00
20057;DHT22;10189;49.546;7.906;2023-03-03T18:22:50;0.80;80.70
20057;DHT22;10189;49.546;7.906;2023-03-03T18:25:24;0.70;81.40
20057;DHT22;10189;49.546;7.906;2023-03-03T18:28:22;0.60;82.00
20057;DHT22;10189;49.546;7.906;2023-03-03T18:30:58;0.50;81.70
20057;DHT22;10189;49.546;7.906;2023-03-03T18:34:24;0.30;82.20
20057;DHT22;10189;49.546;7.906;2023-03-03T18:36:57;0.20;82.40
20057;DHT22;10189;49.546;7.906;2023-03-03T18:39:45;0.00;83.30
20057;DHT22;10189;49.546;7.906;2023-03-03T18:44:43;-0.20;84.40
20057;DHT22;10189;49.546;7.906;2023-03-03T18:47:10;-0.20;84.90
20057;DHT22;10189;49.546;7.906;2023-03-03T18:55:57;-0.50;86.50
20057;DHT22;10189;49.546;7.906;2023-03-03T19:01:13;-0.70;87.40
20057;DHT22;10189;49.546;7.906;2023-03-03T19:04:16;-0.80;87.70
20057;DHT22;10189;49.546;7.906;2023-03-03T19:09:42;-1.00;88.20
20057;DHT22;10189;49.546;7.906;2023-03-03T19:12:15;-1.00;88.70
20057;DHT22;10189;49.546;7.906;2023-03-03T19:14:48;-1.00;89.30
20057;DHT22;10189;49.546;7.906;2023-03-03T19:20:13;-1.20;89.90
20057;DHT22;10189;49.546;7.906;2023-03-03T19:23:04;-1.20;90.40
20057;DHT22;10189;49.546;7.906;2023-03-03T19:25:33;-1.30;91.10
20057;DHT22;10189;49.546;7.906;2023-03-03T19:28:25;-1.20;92.40
20057;DHT22;10189;49.546;7.906;2023-03-03T19:37:39;-1.50;92.10
20057;DHT22;10189;49.546;7.906;2023-03-03T19:45:27;-1.70;93.60
20057;DHT22;10189;49.546;7.906;2023-03-03T19:48:45;-1.80;93.50
20057;DHT22;10189;49.546;7.906;2023-03-03T19:52:02;-1.80;93.60
20057;DHT22;10189;49.546;7.906;2023-03-03T19:54:43;-1.80;94.70
20057;DHT22;10189;49.546;7.906;2023-03-03T20:00:33;-1.90;94.60
20057;DHT22;10189;49.546;7.906;2023-03-03T20:06:24;-2.00;96.50
20057;DHT22;10189;49.546;7.906;2023-03-03T20:09:25;-2.10;96.50
20057;DHT22;10189;49.546;7.906;2023-03-03T20:15:35;-2.20;98.00
20057;DHT22;10189;49.546;7.906;2023-03-03T20:21:42;-2.30;98.10
20057;DHT22;10189;49.546;7.906;2023-03-03T20:27:41;-2.30;98.90
20057;DHT22;10189;49.546;7.906;2023-03-03T20:33:26;-2.40;98.70
20057;DHT22;10189;49.546;7.906;2023-03-03T20:36:26;-2.50;98.90
20057;DHT22;10189;49.546;7.906;2023-03-03T20:39:10;-2.50;99.20
20057;DHT22;10189;49.546;7.906;2023-03-03T20:44:56;-2.50;99.90
20057;DHT22;10189;49.546;7.906;2023-03-03T20:50:23;-2.40;99.90
20057;DHT22;10189;49.546;7.906;2023-03-03T20:58:59;-2.70;99.90
20057;DHT22;10189;49.546;7.906;2023-03-03T21:01:29;-2.70;99.90
20057;DHT22;10189;49.546;7.906;2023-03-03T21:04:26;-2.80;99.90
20057;DHT22;10189;49.546;7.906;2023-03-03T21:06:55;-2.80;99.90
20057;DHT22;10189;49.546;7.906;2023-03-03T21:11:53;-2.80;99.90
20057;DHT22;10189;49.546;7.906;2023-03-03T21:14:24;-2.80;99.90
20057;DHT22;10189;49.546;7.906;2023-03-03T21:16:54;-2.90;99.90
20057;DHT22;10189;49.546;7.906;2023-03-03T21:19:30;-3.00;99.90
20057;DHT22;10189;49.546;7.906;2023-03-03T21:21:59;-3.00;99.90
20057;DHT22;10189;49.546;7.906;2023-03-03T21:24:57;-3.10;99.90
20057;DHT22;10189;49.546;7.906;2023-03-03T21:27:34;-3.10;99.90
20057;DHT22;10189;49.546;7.906;2023-03-03T21:32:36;-3.10;99.90
20057;DHT22;10189;49.546;7.906;2023-03-03T21:35:13;-3.20;99.90
20057;DHT22;10189;49.546;7.906;2023-03-03T21:37:55;-3.20;99.90
20057;DHT22;10189;49.546;7.906;2023-03-03T21:40:27;-3.20;99.90
20057;DHT22;10189;49.546;7.906;2023-03-03T21:42:58;-3.30;99.90
20057;DHT22;10189;49.546;7.906;2023-03-03T21:45:24;-3.40;99.90
20057;DHT22;10189;49.546;7.906;2023-03-03T21:47:52;-3.40;99.90
20057;DHT22;10189;49.546;7.906;2023-03-03T21:50:19;-3.50;99.90
20057;DHT22;10189;49.546;7.906;2023-03-03T21:52:46;-3.50;99.90
20057;DHT22;10189;49.546;7.906;2023-03-03T21:55:13;-3.60;99.90
20057;DHT22;10189;49.546;7.906;2023-03-03T21:57:39;-3.60;99.90
20057;DHT22;10189;49.546;7.906;2023-03-03T22:00:07;-3.60;99.90
20057;DHT22;10189;49.546;7.906;2023-03-03T22:02:34;-3.70;99.90
20057;DHT22;10189;49.546;7.906;2023-03-03T22:05:00;-3.70;99.90
20057;DHT22;10189;49.546;7.906;2023-03-03T22:07:28;-3.70;99.90
20057;DHT22;10189;49.546;7.906;2023-03-03T22:09:54;-3.70;99.90
20057;DHT22;10189;49.546;7.906;2023-03-03T22:12:20;-3.80;99.90
20057;DHT22;10189;49.546;7.906;2023-03-03T22:14:46;-3.80;99.90
20057;DHT22;10189;49.546;7.906;2023-03-03T22:17:12;-3.80;99.90
20057;DHT22;10189;49.546;7.906;2023-03-03T22:19:38;-3.80;99.90
20057;DHT22;10189;49.546;7.906;2023-03-03T22:22:04;-3.80;99.90
20057;DHT22;10189;49.546;7.906;2023-03-03T22:24:30;-3.70;99.90